Time;durP1;ratioP1;P1;durP2;ratioP2;P2;SDS_P1;SDS_P2;PMS_P1;PMS_P2;Temp;Humidity;BMP_temperature;BMP_pressure;BME280_temperature;BME280_humidity;BME280_pressure;Samples;Min_cycle;Max_cycle;Signal;HPM_P1;HPM_P2
2022/05/09 00:00:10;;;;;;;11.93;1.00;;;6.50;99.90;;;;;;5036748;28;20071;-74
2022/05/09 00:02:36;;;;;;;5.20;1.83;;;6.50;99.90;;;;;;5036283;28;20041;-74
2022/05/09 00:05:02;;;;;;;1.67;1.13;;;6.50;99.90;;;;;;5036345;28;20448;-74
2022/05/09 00:07:27;;;;;;;0.88;0.73;;;6.60;99.90;;;;;;5053170;28;20541;-74
2022/05/09 00:09:54;;;;;;;1.67;0.88;;;6.60;99.90;;;;;;5052964;28;20045;-73
2022/05/09 00:12:20;;;;;;;1.38;0.93;;;6.60;99.90;;;;;;5052826;28;20045;-74
2022/05/09 00:14:45;;;;;;;0.70;0.70;;;6.70;99.90;;;;;;5052821;28;20506;-74
2022/05/09 00:17:11;;;;;;;1.10;1.00;;;6.50;99.90;;;;;;5052723;28;20045;-73
2022/05/09 00:19:37;;;;;;;2.53;0.90;;;6.40;99.90;;;;;;5036139;28;20037;-73
2022/05/09 00:22:03;;;;;;;1.83;1.00;;;7.30;99.90;;;;;;5052511;28;20460;-73
2022/05/09 00:24:29;;;;;;;0.88;0.60;;;6.40;99.90;;;;;;5052597;28;20045;-74
2022/05/09 00:26:57;;;;;;;4.53;1.58;;;6.40;99.90;;;;;;5036220;28;20106;-74
2022/05/09 00:29:24;;;;;;;3.15;1.70;;;6.40;99.90;;;;;;5052412;28;20092;-74
2022/05/09 00:31:52;;;;;;;1.35;0.93;;;6.70;99.90;;;;;;5052790;28;20127;-74
2022/05/09 00:34:19;;;;;;;2.47;0.98;;;6.30;99.90;;;;;;5035989;28;20448;-73
2022/05/09 00:36:46;;;;;;;1.17;0.82;;;6.30;99.90;;;;;;5052450;28;20041;-74
2022/05/09 00:39:13;;;;;;;8.05;1.83;;;6.30;99.90;;;;;;5052613;28;20083;-73
2022/05/09 00:41:41;;;;;;;0.55;0.47;;;6.30;99.90;;;;;;5052209;28;20037;-73
2022/05/09 00:44:09;;;;;;;1.02;0.93;;;6.30;99.90;;;;;;5035665;28;20124;-74
2022/05/09 00:46:36;;;;;;;1.38;1.00;;;6.20;99.90;;;;;;5052874;28;20084;-74
2022/05/09 00:49:24;;;;;;;1.75;0.95;;;6.10;99.90;;;;;;5052145;28;20041;-74
2022/05/09 00:52:06;;;;;;;7.10;1.73;;;6.10;99.90;;;;;;5035454;28;20499;-73
2022/05/09 00:54:40;;;;;;;3.40;0.70;;;6.10;99.90;;;;;;5052080;28;20041;-74
2022/05/09 00:57:34;;;;;;;7.03;0.95;;;6.10;99.90;;;;;;5052067;28;20052;-73
2022/05/09 01:00:07;;;;;;;1.50;1.05;;;6.10;99.90;;;;;;5051944;28;20044;-74
2022/05/09 01:02:34;;;;;;;1.27;0.60;;;6.10;99.90;;;;;;5051993;28;20072;-74
2022/05/09 01:05:02;;;;;;;2.70;1.02;;;7.00;99.90;;;;;;5035824;28;20032;-74
2022/05/09 01:07:30;;;;;;;4.20;1.83;;;6.10;99.90;;;;;;5035393;28;20045;-73
2022/05/09 01:09:57;;;;;;;2.15;0.90;;;6.00;99.90;;;;;;5051795;28;20098;-74
2022/05/09 01:12:35;;;;;;;1.70;0.70;;;6.00;99.90;;;;;;5052103;28;20045;-73
2022/05/09 01:15:06;;;;;;;2.08;1.00;;;6.10;99.90;;;;;;5051984;28;20041;-74
2022/05/09 01:17:33;;;;;;;9.52;1.70;;;6.10;99.90;;;;;;5051751;28;20124;-73
2022/05/09 01:20:00;;;;;;;2.40;1.65;;;6.10;99.90;;;;;;5051633;28;20052;-74
2022/05/09 01:22:29;;;;;;;1.67;0.73;;;6.00;99.90;;;;;;5051574;28;20037;-73
2022/05/09 01:25:03;;;;;;;3.50;1.05;;;6.00;99.90;;;;;;5051716;28;20044;-73
2022/05/09 01:27:33;;;;;;;6.97;1.00;;;6.00;99.90;;;;;;5057616;28;20066;-74
2022/05/09 01:30:20;;;;;;;4.57;1.42;;;6.00;99.90;;;;;;5058283;28;20046;-73
2022/05/09 01:32:54;;;;;;;1.60;1.20;;;6.00;99.90;;;;;;5074906;28;20402;-73
2022/05/09 01:35:34;;;;;;;1.60;1.10;;;5.90;99.90;;;;;;5058191;28;20123;-73
2022/05/09 01:38:14;;;;;;;1.50;0.73;;;5.90;99.90;;;;;;5075120;28;20040;-73
2022/05/09 01:40:40;;;;;;;0.90;0.80;;;5.90;99.90;;;;;;5058443;28;20078;-74
2022/05/09 01:43:05;;;;;;;10.00;1.73;;;6.00;99.90;;;;;;5074793;28;20083;-73
2022/05/09 01:45:32;;;;;;;1.20;0.82;;;5.90;99.90;;;;;;5041430;28;20512;-73
2022/05/09 01:50:41;;;;;;;1.35;0.73;;;6.00;99.90;;;;;;5060583;28;20043;-74
2022/05/09 01:53:07;;;;;;;3.55;1.45;;;6.00;99.90;;;;;;5074789;28;20040;-73
2022/05/09 01:55:33;;;;;;;7.72;1.25;;;6.00;99.90;;;;;;5074966;28;20525;-73
2022/05/09 01:57:59;;;;;;;1.95;0.98;;;5.90;99.90;;;;;;5074972;28;20398;-74
2022/05/09 02:00:24;;;;;;;3.70;1.08;;;5.90;99.90;;;;;;5074726;28;20044;-74
2022/05/09 02:02:50;;;;;;;3.17;1.58;;;6.40;99.90;;;;;;5061479;28;20384;-74
2022/05/09 02:05:16;;;;;;;2.30;1.02;;;5.90;99.90;;;;;;5078895;28;20040;-74
2022/05/09 02:07:42;;;;;;;2.72;0.98;;;5.90;99.90;;;;;;5061846;28;20082;-73
2022/05/09 02:10:09;;;;;;;1.85;0.80;;;5.90;99.90;;;;;;5061692;28;20032;-74
2022/05/09 02:12:34;;;;;;;2.85;1.40;;;5.90;99.90;;;;;;5061817;28;20040;-74
2022/05/09 02:15:00;;;;;;;1.67;1.08;;;5.80;99.90;;;;;;5078354;28;20411;-74
2022/05/09 02:17:26;;;;;;;1.10;0.88;;;5.80;99.90;;;;;;5078319;28;20571;-73
2022/05/09 02:19:52;;;;;;;4.00;1.10;;;5.80;99.90;;;;;;5061949;28;20126;-73
2022/05/09 02:22:18;;;;;;;12.75;2.38;;;5.80;99.90;;;;;;5078187;28;20403;-73
2022/05/09 02:24:45;;;;;;;2.17;1.20;;;5.70;99.90;;;;;;5078256;28;20036;-74
2022/05/09 02:27:11;;;;;;;1.83;1.05;;;5.70;99.90;;;;;;5061279;28;20047;-71
2022/05/09 02:29:42;;;;;;;1.35;0.77;;;6.30;99.90;;;;;;5078354;28;20044;-71
2022/05/09 02:32:09;;;;;;;6.10;1.50;;;5.70;99.90;;;;;;5078314;28;20083;-71
2022/05/09 02:34:35;;;;;;;7.00;1.25;;;5.60;99.90;;;;;;5061893;28;20044;-71
2022/05/09 02:37:01;;;;;;;2.67;1.10;;;5.60;99.90;;;;;;5061593;28;20480;-71
2022/05/09 02:39:27;;;;;;;5.60;1.65;;;5.60;99.90;;;;;;5061191;28;20109;-71
2022/05/09 02:41:53;;;;;;;3.35;0.85;;;5.50;99.90;;;;;;5078020;28;20097;-71
2022/05/09 02:44:19;;;;;;;1.27;0.95;;;5.50;99.90;;;;;;5078017;28;20437;-71
2022/05/09 02:46:44;;;;;;;9.98;1.10;;;5.50;99.90;;;;;;5077776;28;20040;-71
2022/05/09 02:49:11;;;;;;;2.88;1.30;;;5.40;99.90;;;;;;5077773;28;20032;-71
2022/05/09 02:51:37;;;;;;;1.48;1.05;;;5.40;99.90;;;;;;5077868;28;20050;-71
2022/05/09 02:54:03;;;;;;;4.05;0.80;;;5.50;99.90;;;;;;5077897;28;20038;-71
2022/05/09 02:56:29;;;;;;;6.30;1.65;;;5.40;99.90;;;;;;5077450;28;20040;-71
2022/05/09 02:58:55;;;;;;;2.50;1.27;;;5.30;99.90;;;;;;5077809;28;20157;-71
2022/05/09 03:01:20;;;;;;;4.90;1.60;;;5.30;99.90;;;;;;5060736;28;20044;-71
2022/05/09 03:06:47;;;;;;;2.08;1.15;;;5.20;99.90;;;;;;4997396;28;20046;-70
2022/05/09 03:09:13;;;;;;;4.95;1.25;;;5.20;99.90;;;;;;5064876;28;20134;-71
2022/05/09 03:11:38;;;;;;;3.65;1.45;;;5.20;99.90;;;;;;5060848;28;20036;-71
2022/05/09 03:14:05;;;;;;;1.67;1.27;;;5.20;99.90;;;;;;5076800;28;20043;-71
2022/05/09 03:16:31;;;;;;;1.10;0.70;;;5.20;99.90;;;;;;5077152;28;20101;-71
2022/05/09 03:18:57;;;;;;;2.75;0.85;;;5.20;99.90;;;;;;5077356;28;20051;-71
2022/05/09 03:21:23;;;;;;;1.20;0.93;;;5.30;99.90;;;;;;5076960;28;20043;-71
2022/05/09 03:23:49;;;;;;;1.65;0.75;;;5.20;99.90;;;;;;5060317;28;20052;-71
2022/05/09 03:26:14;;;;;;;2.85;1.58;;;5.20;99.90;;;;;;5060267;28;20042;-71
2022/05/09 03:28:40;;;;;;;2.60;1.50;;;5.20;99.90;;;;;;5076898;28;20074;-71
2022/05/09 03:31:06;;;;;;;1.75;1.35;;;5.20;99.90;;;;;;5060482;28;20097;-71
2022/05/09 03:33:31;;;;;;;1.77;0.95;;;5.20;99.90;;;;;;5077076;28;20113;-71
2022/05/09 03:35:59;;;;;;;1.65;1.10;;;5.30;99.90;;;;;;5076886;28;20040;-70
2022/05/09 03:38:25;;;;;;;3.53;1.15;;;5.20;99.90;;;;;;5060617;28;20079;-71
2022/05/09 03:40:50;;;;;;;2.90;1.27;;;5.20;99.90;;;;;;5076699;28;20072;-70
2022/05/09 03:43:16;;;;;;;3.55;1.20;;;5.20;99.90;;;;;;5076671;28;20061;-70
2022/05/09 03:45:45;;;;;;;1.33;1.23;;;5.30;99.90;;;;;;5076576;28;20071;-70
2022/05/09 03:48:10;;;;;;;2.05;0.70;;;5.30;99.90;;;;;;5076516;28;20036;-71
2022/05/09 03:50:36;;;;;;;2.45;1.33;;;5.30;99.90;;;;;;5059930;28;20043;-70
2022/05/09 03:53:02;;;;;;;1.83;1.10;;;5.30;99.90;;;;;;5059844;28;20044;-71
2022/05/09 03:55:28;;;;;;;3.05;1.50;;;5.30;99.90;;;;;;5076480;28;20039;-70
2022/05/09 03:57:55;;;;;;;1.55;1.23;;;5.20;99.90;;;;;;5059737;28;20044;-71
2022/05/09 04:00:28;;;;;;;1.77;0.77;;;5.00;99.90;;;;;;5076721;28;20047;-71
2022/05/09 04:02:54;;;;;;;7.38;1.42;;;5.20;99.90;;;;;;5076210;28;20039;-70
2022/05/09 04:05:20;;;;;;;3.15;1.25;;;5.20;99.90;;;;;;5059905;28;20058;-70
2022/05/09 04:07:52;;;;;;;1.73;1.13;;;5.30;99.90;;;;;;5059784;28;20040;-70
2022/05/09 04:10:20;;;;;;;1.40;1.27;;;5.30;99.90;;;;;;5059483;28;20072;-70
2022/05/09 04:12:46;;;;;;;1.77;1.23;;;5.30;99.90;;;;;;5059437;28;20047;-70
2022/05/09 04:17:57;;;;;;;1.42;0.98;;;5.40;99.90;;;;;;5061904;28;20050;-71
2022/05/09 04:20:24;;;;;;;1.30;1.13;;;5.40;99.90;;;;;;5042804;28;20044;-70
2022/05/09 04:22:54;;;;;;;3.35;1.13;;;5.40;99.90;;;;;;5075884;28;20048;-70
2022/05/09 04:25:22;;;;;;;1.98;0.80;;;5.50;99.90;;;;;;5059122;28;20040;-70
2022/05/09 04:27:47;;;;;;;3.75;1.38;;;5.50;99.90;;;;;;5075565;28;20052;-70
2022/05/09 04:30:13;;;;;;;3.88;1.23;;;5.60;99.90;;;;;;5092563;28;20051;-70
2022/05/09 04:32:40;;;;;;;2.50;1.45;;;5.60;99.90;;;;;;5059190;28;20473;-70
2022/05/09 04:35:21;;;;;;;1.73;1.05;;;5.70;99.90;;;;;;5075627;28;20044;-70
2022/05/09 04:37:49;;;;;;;2.42;1.35;;;5.80;99.90;;;;;;5075674;28;20052;-70
2022/05/09 04:40:21;;;;;;;2.58;1.65;;;5.80;99.90;;;;;;5075522;28;20083;-70
2022/05/09 04:42:47;;;;;;;3.17;1.73;;;5.80;99.90;;;;;;5075551;28;20104;-70
2022/05/09 04:45:14;;;;;;;2.13;1.55;;;5.90;99.90;;;;;;5058722;28;20044;-70
2022/05/09 04:47:41;;;;;;;2.13;1.20;;;5.90;99.90;;;;;;5042513;28;20079;-70
2022/05/09 04:50:09;;;;;;;4.78;1.27;;;6.00;99.90;;;;;;5075660;28;20040;-70
2022/05/09 04:52:35;;;;;;;3.30;1.63;;;6.10;99.90;;;;;;5075246;28;20077;-70
2022/05/09 04:55:01;;;;;;;3.55;1.73;;;6.10;99.90;;;;;;5058915;28;20040;-70
2022/05/09 04:57:26;;;;;;;1.60;0.95;;;6.20;99.90;;;;;;5075557;28;20048;-70
2022/05/09 04:59:52;;;;;;;2.47;1.25;;;6.30;99.90;;;;;;5075291;28;20109;-70
2022/05/09 05:02:18;;;;;;;4.57;1.85;;;6.30;99.90;;;;;;5042332;28;20406;-70
2022/05/09 05:04:44;;;;;;;4.18;1.40;;;6.40;99.90;;;;;;5058544;28;20032;-71
2022/05/09 05:07:09;;;;;;;2.55;1.55;;;6.70;99.90;;;;;;5058367;28;20036;-70
2022/05/09 05:09:35;;;;;;;3.53;1.45;;;6.50;99.90;;;;;;5058472;28;20036;-70
2022/05/09 05:12:02;;;;;;;2.60;1.33;;;6.60;99.90;;;;;;5058414;28;20036;-70
2022/05/09 05:14:28;;;;;;;16.17;1.38;;;6.70;99.90;;;;;;5074925;28;20036;-70
2022/05/09 05:16:59;;;;;;;1.48;1.15;;;7.40;99.90;;;;;;5075033;28;20038;-70
2022/05/09 05:19:34;;;;;;;7.43;1.58;;;6.80;99.90;;;;;;5074982;28;20041;-71
2022/05/09 05:22:01;;;;;;;3.08;1.88;;;6.90;99.90;;;;;;5075177;28;20123;-70
2022/05/09 05:24:27;;;;;;;2.47;1.70;;;7.70;99.90;;;;;;5058452;28;20044;-70
2022/05/09 05:26:56;;;;;;;1.85;1.23;;;7.10;99.90;;;;;;5058518;28;20536;-70
2022/05/09 05:29:22;;;;;;;4.07;1.50;;;7.10;99.90;;;;;;5074752;28;20121;-70
2022/05/09 05:31:49;;;;;;;1.77;1.13;;;7.30;99.90;;;;;;5074792;28;20097;-70
2022/05/09 05:34:14;;;;;;;2.08;1.48;;;7.10;99.90;;;;;;5058187;28;20036;-70
2022/05/09 05:36:40;;;;;;;2.85;1.65;;;7.20;99.90;;;;;;5041115;28;20044;-70
2022/05/09 05:39:07;;;;;;;5.22;0.93;;;7.20;99.90;;;;;;5074827;28;20135;-69
2022/05/09 05:41:33;;;;;;;8.18;1.90;;;7.60;99.90;;;;;;5058222;28;20040;-69
2022/05/09 05:43:59;;;;;;;1.90;1.20;;;7.70;99.90;;;;;;5058103;28;20069;-71
2022/05/09 05:46:25;;;;;;;2.97;1.27;;;7.90;99.90;;;;;;5075092;28;20046;-68
2022/05/09 05:48:51;;;;;;;2.30;1.55;;;8.00;99.90;;;;;;5058147;28;20126;-70
2022/05/09 05:51:18;;;;;;;3.13;1.83;;;8.20;99.90;;;;;;5075021;28;20098;-71
2022/05/09 05:53:45;;;;;;;2.67;1.58;;;8.40;99.90;;;;;;5058055;28;20067;-70
2022/05/09 05:56:11;;;;;;;1.67;0.90;;;8.10;99.90;;;;;;5041478;28;20040;-72
2022/05/09 05:58:37;;;;;;;3.03;1.63;;;8.60;99.90;;;;;;5074703;28;20406;-71
2022/05/09 06:01:03;;;;;;;3.58;1.95;;;8.80;99.90;;;;;;5057981;28;20047;-72
2022/05/09 06:03:29;;;;;;;4.28;1.83;;;9.10;99.90;;;;;;5057801;28;20130;-73
2022/05/09 06:05:54;;;;;;;4.00;2.08;;;8.90;99.90;;;;;;5074812;28;20039;-71
2022/05/09 06:08:20;;;;;;;2.00;1.15;;;9.20;99.90;;;;;;5074422;28;20032;-70
2022/05/09 06:10:47;;;;;;;4.50;1.75;;;8.70;99.90;;;;;;5057733;28;20055;-70
2022/05/09 06:13:13;;;;;;;7.57;1.73;;;9.60;99.90;;;;;;5074820;28;20048;-75
2022/05/09 06:15:42;;;;;;;6.95;1.95;;;9.00;99.90;;;;;;5057707;28;20051;-73
2022/05/09 06:18:09;;;;;;;5.47;1.85;;;9.20;99.90;;;;;;5074566;28;20048;-74
2022/05/09 06:20:39;;;;;;;7.25;2.22;;;9.40;99.90;;;;;;5074753;28;20506;-73
2022/05/09 06:23:06;;;;;;;2.38;1.73;;;9.60;99.90;;;;;;5041253;28;20043;-72
2022/05/09 06:25:36;;;;;;;2.30;1.75;;;9.80;99.90;;;;;;5057794;28;20101;-73
2022/05/09 06:28:05;;;;;;;2.22;1.25;;;10.50;99.90;;;;;;5074363;28;20052;-73
2022/05/09 06:30:31;;;;;;;7.30;2.55;;;10.10;99.90;;;;;;5091295;28;20054;-72
2022/05/09 06:32:57;;;;;;;6.28;2.67;;;10.20;99.90;;;;;;5074673;28;20058;-73
2022/05/09 06:35:26;;;;;;;4.68;2.13;;;10.70;99.90;;;;;;5074345;28;20131;-73
2022/05/09 06:38:00;;;;;;;3.13;1.70;;;11.00;99.90;;;;;;5074429;28;20118;-73
2022/05/09 06:40:28;;;;;;;3.10;1.65;;;10.70;99.90;;;;;;5074254;28;20047;-73
2022/05/09 06:42:55;;;;;;;3.58;1.85;;;10.90;99.90;;;;;;5057416;28;20051;-73
2022/05/09 06:45:21;;;;;;;2.15;1.48;;;11.10;99.90;;;;;;5074120;28;20101;-73
2022/05/09 06:47:48;;;;;;;4.57;2.03;;;;;;;;;;5057636;28;20112;-74
2022/05/09 06:50:15;;;;;;;3.45;1.40;;;11.30;99.90;;;;;;5077683;28;20043;-71
2022/05/09 06:52:42;;;;;;;3.10;1.83;;;;;;;;;;5077778;28;20538;-71
2022/05/09 06:55:08;;;;;;;4.38;1.60;;;;;;;;;;5077475;28;20103;-71
2022/05/09 06:57:41;;;;;;;2.67;1.42;;;;;;;;;;5077518;28;20044;-71
2022/05/09 07:00:10;;;;;;;5.38;1.70;;;12.10;99.90;;;;;;5077649;28;20044;-71
2022/05/09 07:02:36;;;;;;;10.57;1.80;;;12.30;99.90;;;;;;5060828;28;20428;-71
2022/05/09 07:05:04;;;;;;;5.50;1.75;;;12.30;99.90;;;;;;5077570;28;20047;-71
2022/05/09 07:07:30;;;;;;;3.95;1.65;;;12.70;99.90;;;;;;5060548;28;20067;-70
2022/05/09 07:09:56;;;;;;;3.13;1.67;;;;;;;;;;5077583;28;20508;-71
2022/05/09 07:12:21;;;;;;;4.40;1.83;;;13.00;99.90;;;;;;5060775;28;20411;-71
2022/05/09 07:14:47;;;;;;;2.35;1.38;;;13.20;99.90;;;;;;5060487;28;20047;-71
2022/05/09 07:17:13;;;;;;;5.38;2.13;;;13.30;99.90;;;;;;5077280;28;20578;-71
2022/05/09 07:19:38;;;;;;;4.22;1.33;;;13.40;99.90;;;;;;5077333;28;20051;-70
2022/05/09 07:22:04;;;;;;;3.40;1.25;;;13.60;99.90;;;;;;5043974;28;20126;-70
2022/05/09 07:24:30;;;;;;;6.25;1.38;;;13.60;99.90;;;;;;5060203;28;20105;-71
2022/05/09 07:26:56;;;;;;;4.68;1.77;;;13.60;99.90;;;;;;5076964;28;20105;-71
2022/05/09 07:29:21;;;;;;;11.13;2.70;;;13.60;99.90;;;;;;5076796;28;20465;-71
2022/05/09 07:31:47;;;;;;;7.63;1.50;;;13.60;99.90;;;;;;5060640;28;20101;-71
2022/05/09 07:34:13;;;;;;;7.65;1.45;;;13.70;99.90;;;;;;5077138;28;20039;-71
2022/05/09 07:36:39;;;;;;;4.10;1.17;;;13.90;99.90;;;;;;5077071;28;20051;-71
2022/05/09 07:39:05;;;;;;;2.58;1.27;;;13.80;99.90;;;;;;5060087;28;20058;-71
2022/05/09 07:41:31;;;;;;;5.13;1.40;;;13.90;99.90;;;;;;5076830;28;20040;-70
2022/05/09 07:43:57;;;;;;;3.55;1.00;;;14.10;99.90;;;;;;5043472;28;20132;-71
2022/05/09 07:46:23;;;;;;;4.40;1.27;;;14.40;99.90;;;;;;5060256;28;20122;-71
2022/05/09 07:48:49;;;;;;;5.20;1.20;;;14.50;99.90;;;;;;5076680;28;20069;-71
2022/05/09 07:51:16;;;;;;;2.47;1.48;;;14.70;99.90;;;;;;5076612;28;20127;-71
2022/05/09 07:53:41;;;;;;;2.08;1.27;;;14.80;99.90;;;;;;5076831;28;20051;-71
2022/05/09 07:56:07;;;;;;;2.78;1.17;;;14.70;99.90;;;;;;5076698;28;20040;-71
2022/05/09 07:58:34;;;;;;;2.00;1.20;;;14.90;99.90;;;;;;5076613;28;20082;-71
2022/05/09 08:01:02;;;;;;;2.50;1.45;;;15.10;99.90;;;;;;5059784;28;20043;-71
2022/05/09 08:03:29;;;;;;;7.95;1.63;;;15.20;99.90;;;;;;5076297;28;20052;-71
2022/05/09 08:05:59;;;;;;;14.18;1.92;;;15.30;99.90;;;;;;5076175;28;20040;-74
2022/05/09 08:08:28;;;;;;;4.67;1.90;;;15.30;99.90;;;;;;5059902;28;20125;-71
2022/05/09 08:10:56;;;;;;;4.97;1.52;;;15.40;99.90;;;;;;5059817;28;20046;-71
2022/05/09 08:13:22;;;;;;;4.43;1.83;;;15.50;99.90;;;;;;5059684;28;20044;-71
2022/05/09 08:15:48;;;;;;;3.92;1.20;;;15.60;99.90;;;;;;5076066;28;20051;-70
2022/05/09 08:18:15;;;;;;;6.47;1.98;;;15.70;99.90;;;;;;5059672;28;20491;-71
2022/05/09 08:20:45;;;;;;;5.35;1.38;;;15.70;99.90;;;;;;5059609;28;20505;-71
2022/05/09 08:23:15;;;;;;;3.27;1.40;;;15.70;99.90;;;;;;5075967;28;20044;-71
2022/05/09 08:25:43;;;;;;;4.47;1.30;;;15.80;99.90;;;;;;5075886;28;20122;-71
2022/05/09 08:28:10;;;;;;;5.18;1.42;;;15.80;99.90;;;;;;5075644;28;20289;-71
2022/05/09 08:30:37;;;;;;;1.98;1.00;;;16.00;99.90;;;;;;5076053;28;20100;-70
2022/05/09 08:33:09;;;;;;;3.10;1.10;;;16.10;99.90;;;;;;5075635;28;20082;-71
2022/05/09 08:35:35;;;;;;;2.83;1.15;;;16.20;99.90;;;;;;5075957;28;20046;-71
2022/05/09 08:38:01;;;;;;;1.77;1.05;;;16.00;99.90;;;;;;5059048;28;20036;-71
2022/05/09 08:40:50;;;;;;;2.88;1.17;;;16.20;99.90;;;;;;5075582;28;20048;-71
2022/05/09 08:43:34;;;;;;;5.20;1.40;;;16.40;99.90;;;;;;5058907;28;20086;-72
2022/05/09 08:46:18;;;;;;;2.38;1.23;;;16.60;99.90;;;;;;5075728;28;20094;-71
2022/05/09 08:48:44;;;;;;;1.85;1.13;;;16.70;99.90;;;;;;5075467;28;20050;-71
2022/05/09 08:51:38;;;;;;;3.20;1.35;;;16.80;99.90;;;;;;5075404;28;20123;-71
2022/05/09 08:54:08;;;;;;;5.55;1.58;;;17.00;99.90;;;;;;5075472;28;20105;-71
2022/05/09 08:56:34;;;;;;;1.63;1.25;;;17.20;99.90;;;;;;5058605;28;20046;-70
2022/05/09 08:59:04;;;;;;;3.15;1.27;;;17.30;99.90;;;;;;5058777;28;20035;-71
2022/05/09 09:01:53;;;;;;;5.80;1.50;;;17.30;99.90;;;;;;5075224;28;20075;-71
2022/05/09 09:04:29;;;;;;;2.67;0.93;;;17.30;99.90;;;;;;5075079;28;20075;-71
2022/05/09 09:06:57;;;;;;;4.30;1.38;;;17.40;99.90;;;;;;5075448;28;20456;-70
2022/05/09 09:09:32;;;;;;;4.82;1.38;;;17.40;99.90;;;;;;5075451;28;20040;-71
2022/05/09 09:12:13;;;;;;;7.07;1.40;;;17.50;99.90;;;;;;5074464;28;20055;-71
2022/05/09 09:15:06;;;;;;;3.28;1.17;;;17.60;99.90;;;;;;5092147;28;20478;-71
2022/05/09 09:17:44;;;;;;;3.75;1.30;;;17.70;99.90;;;;;;5093114;28;20043;-71
2022/05/09 09:20:20;;;;;;;2.83;1.20;;;17.70;99.70;;;;;;5074933;28;20035;-71
2022/05/09 09:23:18;;;;;;;6.07;1.35;;;17.70;99.90;;;;;;5074952;28;20146;-72
2022/05/09 09:25:55;;;;;;;4.65;1.20;;;17.70;98.40;;;;;;5074890;28;20085;-71
2022/05/09 09:28:46;;;;;;;1.92;1.00;;;17.70;99.60;;;;;;5057827;28;20044;-71
2022/05/09 09:31:13;;;;;;;;;;;17.80;99.30;;;;;;5075268;28;20040;-71
2022/05/09 09:33:50;;;;;;;0.88;0.68;;;17.90;98.70;;;;;;5074828;28;19920;-71
2022/05/09 09:36:17;;;;;;;6.40;1.02;;;18.00;98.20;;;;;;5075097;28;20087;-71
2022/05/09 09:38:57;;;;;;;1.38;0.68;;;18.00;98.00;;;;;;5075103;28;20044;-71
2022/05/09 09:41:26;;;;;;;;;;;18.20;99.40;;;;;;5075148;28;20043;-70
2022/05/09 09:44:04;;;;;;;2.92;1.02;;;18.30;97.20;;;;;;5074718;28;19927;-71
2022/05/09 09:46:30;;;;;;;1.55;0.73;;;18.50;98.40;;;;;;5058262;28;20484;-71
2022/05/09 09:49:07;;;;;;;1.77;0.80;;;18.60;96.60;;;;;;5074733;28;20047;-71
2022/05/09 09:51:45;;;;;;;1.40;0.88;;;18.50;95.50;;;;;;5058227;28;20093;-71
2022/05/09 09:54:12;;;;;;;1.13;0.65;;;18.50;95.50;;;;;;5074884;28;20036;-71
2022/05/09 09:56:38;;;;;;;1.85;0.93;;;18.60;96.60;;;;;;5057797;28;20040;-71
2022/05/09 09:59:13;;;;;;;2.08;0.90;;;18.70;96.20;;;;;;5074564;28;20039;-71
2022/05/09 10:01:43;;;;;;;1.90;1.00;;;18.80;95.80;;;;;;5057847;28;20040;-71
2022/05/09 10:04:13;;;;;;;3.85;1.00;;;18.70;95.50;;;;;;5057865;28;20040;-71
2022/05/09 10:07:04;;;;;;;3.15;0.85;;;19.10;96.10;;;;;;5074613;28;20038;-72
2022/05/09 10:09:35;;;;;;;;;;;18.90;93.60;;;;;;5074826;28;20109;-72
2022/05/09 10:12:34;;;;;;;5.82;1.17;;;19.00;96.10;;;;;;5074761;28;20355;-71
2022/05/09 10:15:01;;;;;;;2.35;1.23;;;;;;;;;;5020752;28;20481;-71
2022/05/09 10:17:34;;;;;;;4.65;1.08;;;19.30;99.90;;;;;;5074290;28;20044;-72
2022/05/09 10:20:22;;;;;;;4.05;1.02;;;19.30;99.90;;;;;;5074342;28;20036;-73
2022/05/09 10:25:36;;;;;;;2.03;0.80;;;19.30;99.90;;;;;;5064371;28;20395;-73
2022/05/09 10:28:07;;;;;;;5.03;1.13;;;19.40;99.90;;;;;;5078026;28;20056;-73
2022/05/09 10:30:36;;;;;;;0.88;0.80;;;19.50;99.90;;;;;;5094974;28;20048;-73
2022/05/09 10:33:31;;;;;;;1.52;0.77;;;19.50;99.90;;;;;;5078016;28;20075;-73
2022/05/09 10:36:02;;;;;;;1.55;0.93;;;19.50;99.90;;;;;;5078190;28;20130;-73
2022/05/09 10:38:49;;;;;;;1.45;0.90;;;19.50;99.90;;;;;;5078060;28;20372;-72
2022/05/09 10:41:41;;;;;;;1.00;0.47;;;19.60;99.90;;;;;;5061237;28;20124;-73
2022/05/09 10:44:34;;;;;;;3.33;1.05;;;19.70;99.90;;;;;;5077721;28;20122;-74
2022/05/09 10:47:08;;;;;;;3.50;1.02;;;19.90;99.90;;;;;;5061055;28;20078;-72
2022/05/09 10:50:09;;;;;;;2.50;1.20;;;19.50;99.90;;;;;;5077660;28;20098;-73
2022/05/09 10:52:50;;;;;;;0.88;0.77;;;19.50;99.90;;;;;;5049298;28;20048;-73
2022/05/09 10:55:19;;;;;;;1.42;0.70;;;19.30;99.90;;;;;;5077666;28;20092;-72
2022/05/09 10:57:46;;;;;;;1.85;0.82;;;19.40;99.90;;;;;;5077458;28;20076;-72
2022/05/09 11:00:20;;;;;;;1.48;0.77;;;19.50;99.90;;;;;;5077604;28;20046;-73
2022/05/09 11:02:59;;;;;;;2.65;1.58;;;19.60;99.90;;;;;;5077523;28;20043;-73
2022/05/09 11:05:28;;;;;;;1.38;0.50;;;19.70;99.90;;;;;;5077745;28;20040;-73
2022/05/09 11:08:11;;;;;;;1.40;0.55;;;19.80;99.90;;;;;;5077378;28;20098;-73
2022/05/09 11:10:50;;;;;;;1.60;0.82;;;19.80;99.90;;;;;;5077327;28;20048;-73
2022/05/09 11:13:56;;;;;;;0.60;0.50;;;19.90;99.90;;;;;;5077342;28;20089;-73
2022/05/09 11:16:44;;;;;;;4.55;0.77;;;20.20;99.90;;;;;;5060931;28;20040;-72
2022/05/09 11:19:24;;;;;;;1.45;0.70;;;20.00;99.90;;;;;;5077425;28;20054;-73
2022/05/09 11:22:12;;;;;;;2.13;0.73;;;20.00;99.90;;;;;;5077377;28;20050;-74
2022/05/09 11:25:05;;;;;;;6.05;1.20;;;20.30;99.80;;;;;;5077424;28;20315;-73
2022/05/09 11:27:37;;;;;;;9.93;1.10;;;;;;;;;;5076871;28;20043;-74
2022/05/09 11:30:17;;;;;;;3.15;0.82;;;;;;;;;;5077285;28;20044;-73
2022/05/09 11:32:46;;;;;;;1.13;0.70;;;;;;;;;;5060311;28;20077;-73
2022/05/09 11:35:24;;;;;;;1.35;0.65;;;;;;;;;;5076596;28;20560;-73
2022/05/09 11:37:50;;;;;;;3.10;0.88;;;;;;;;;;5077111;28;20048;-73
2022/05/09 11:40:26;;;;;;;2.83;1.30;;;;;;;;;;5076845;28;20093;-73
2022/05/09 11:43:32;;;;;;;2.67;1.52;;;;;;;;;;5076925;28;20126;-73
2022/05/09 11:45:58;;;;;;;1.30;1.00;;;;;;;;;;5060019;28;20071;-74
2022/05/09 11:48:33;;;;;;;1.27;0.68;;;;;;;;;;5060064;28;20036;-72
2022/05/09 11:51:03;;;;;;;1.20;0.70;;;20.80;90.70;;;;;;5076827;28;20126;-73
2022/05/09 11:53:35;;;;;;;2.28;0.60;;;20.80;90.60;;;;;;5059866;28;20105;-73
2022/05/09 11:56:05;;;;;;;2.40;0.80;;;20.90;90.90;;;;;;5076530;28;20054;-72
2022/05/09 11:58:36;;;;;;;5.53;0.82;;;20.90;90.90;;;;;;5076682;28;20140;-72
2022/05/09 12:01:02;;;;;;;;;;;21.00;90.50;;;;;;5077108;28;20044;-72
2022/05/09 12:03:42;;;;;;;3.78;0.75;;;21.10;90.50;;;;;;5076480;28;19920;-72
2022/05/09 12:06:26;;;;;;;3.88;0.90;;;21.10;90.80;;;;;;5059914;28;20052;-72
2022/05/09 12:08:53;;;;;;;1.65;1.00;;;21.20;90.50;;;;;;5076227;28;20047;-72
2022/05/09 12:11:30;;;;;;;0.85;0.60;;;21.20;90.10;;;;;;5076167;28;20040;-72
2022/05/09 12:13:59;;;;;;;1.92;0.90;;;21.30;89.60;;;;;;5076101;28;20122;-72
2022/05/09 12:16:36;;;;;;;8.30;0.77;;;21.40;89.50;;;;;;5076025;28;20047;-72
2022/05/09 12:19:11;;;;;;;2.92;0.60;;;21.40;90.00;;;;;;5075947;28;20062;-72
2022/05/09 12:21:37;;;;;;;3.05;1.10;;;21.50;90.50;;;;;;5059346;28;20043;-72
2022/05/09 12:24:14;;;;;;;4.18;0.85;;;21.40;88.50;;;;;;5075814;28;20078;-73
2022/05/09 12:26:42;;;;;;;0.65;0.50;;;21.50;89.90;;;;;;5075973;28;20122;-73
2022/05/09 12:29:45;;;;;;;1.42;0.57;;;21.50;90.10;;;;;;5075540;28;20048;-73
2022/05/09 12:32:13;;;;;;;2.35;1.27;;;21.50;89.10;;;;;;5059119;28;20067;-72
2022/05/09 12:34:43;;;;;;;0.73;0.55;;;21.70;89.70;;;;;;5075700;28;20040;-72
2022/05/09 12:37:22;;;;;;;1.02;0.68;;;21.70;88.30;;;;;;5076063;28;20490;-73
2022/05/09 12:39:52;;;;;;;1.67;0.70;;;21.80;87.50;;;;;;5075950;28;20471;-72
2022/05/09 12:42:41;;;;;;;3.35;1.20;;;21.80;87.90;;;;;;5058796;28;20125;-73
2022/05/09 12:45:07;;;;;;;1.70;0.60;;;21.80;86.90;;;;;;5075138;28;20062;-72
2022/05/09 12:47:36;;;;;;;0.65;0.55;;;21.80;88.10;;;;;;5042171;28;20131;-73
2022/05/09 12:50:21;;;;;;;2.55;0.75;;;21.80;86.10;;;;;;5058761;28;20031;-73
2022/05/09 12:52:53;;;;;;;1.55;0.57;;;21.80;86.90;;;;;;5075401;28;20135;-72
2022/05/09 12:58:30;;;;;;;1.70;0.85;;;22.10;88.90;;;;;;5075308;28;20122;-72
2022/05/09 13:00:58;;;;;;;2.55;1.17;;;22.10;86.80;;;;;;5075348;28;20044;-73
2022/05/09 13:03:24;;;;;;;1.10;0.77;;;22.10;83.70;;;;;;5075177;28;20047;-73
2022/05/09 13:05:52;;;;;;;1.58;0.85;;;22.20;83.90;;;;;;5058920;28;20032;-73
2022/05/09 13:08:19;;;;;;;2.95;0.77;;;22.10;81.30;;;;;;5075531;28;20053;-73
2022/05/09 13:10:48;;;;;;;0.85;0.57;;;22.10;83.90;;;;;;5075389;28;20043;-73
2022/05/09 13:13:27;;;;;;;0.77;0.70;;;22.20;82.00;;;;;;5075115;28;20054;-73
2022/05/09 13:15:53;;;;;;;4.88;1.25;;;22.20;83.90;;;;;;5075284;28;20044;-73
2022/05/09 13:18:22;;;;;;;2.67;0.75;;;22.20;83.60;;;;;;5058279;28;20050;-73
2022/05/09 13:20:51;;;;;;;1.70;0.70;;;22.10;82.60;;;;;;5074995;28;20052;-73
2022/05/09 13:23:29;;;;;;;2.95;1.02;;;22.10;81.50;;;;;;5074864;28;20040;-72
2022/05/09 13:26:00;;;;;;;3.05;0.82;;;22.30;82.40;;;;;;5075290;28;20094;-73
2022/05/09 13:28:31;;;;;;;2.05;0.70;;;22.30;83.80;;;;;;5074705;28;20083;-72